createdAt,value
2023-04-01T00:00:08.025Z,20.05
2023-04-01T00:02:43.039Z,19.71
2023-04-01T00:05:13.942Z,19.76
2023-04-01T00:07:42.171Z,19.86
2023-04-01T00:10:12.385Z,19.76
2023-04-01T00:12:39.995Z,19.89
2023-04-01T00:15:10.266Z,19.82
2023-04-01T00:17:37.732Z,19.46
2023-04-01T00:20:06.510Z,19.59
2023-04-01T00:22:36.808Z,19.71
2023-04-01T00:25:05.626Z,19.41
2023-04-01T00:27:35.875Z,19.24
2023-04-01T00:30:03.513Z,19.44
2023-04-01T00:32:31.793Z,19.15
2023-04-01T00:35:00.682Z,19.43
2023-04-01T00:37:29.153Z,19.39
2023-04-01T00:39:56.982Z,19.12
2023-04-01T00:42:24.692Z,19.15
2023-04-01T00:44:54.851Z,19.09
2023-04-01T00:47:27.986Z,18.96
2023-04-01T00:49:56.579Z,19.12
2023-04-01T00:52:27.008Z,19.21
2023-04-01T00:55:02.557Z,19.15
2023-04-01T00:57:36.451Z,19.12
2023-04-01T01:00:14.774Z,18.93
2023-04-01T01:02:54.862Z,19.07
2023-04-01T01:06:05.638Z,18.65
2023-04-01T01:09:17.242Z,18.81
2023-04-01T01:12:27.257Z,18.84
2023-04-01T01:15:32.219Z,18.57
2023-04-01T01:18:57.756Z,18.51
2023-04-01T01:22:48.766Z,18.67
2023-04-01T01:25:53.203Z,18.48
2023-04-01T01:28:42.668Z,18.79
2023-04-01T01:32:07.587Z,18.79
2023-04-01T01:35:11.353Z,18.61
2023-04-01T01:38:07.970Z,18.92
2023-04-01T01:40:49.690Z,18.76
2023-04-01T01:43:47.818Z,18.63
2023-04-01T01:46:32.625Z,18.38
2023-04-01T01:49:26.661Z,18.71
2023-04-01T01:52:08.356Z,18.86
2023-04-01T01:54:58.693Z,18.41
2023-04-01T01:58:06.196Z,18.68
2023-04-01T02:00:36.663Z,18.77
2023-04-01T02:03:05.888Z,18.68
2023-04-01T02:05:33.894Z,18.89
2023-04-01T02:08:13.391Z,19.06
2023-04-01T02:10:46.817Z,18.95
2023-04-01T02:13:36.496Z,19.16
2023-04-01T02:16:15.183Z,18.96
2023-04-01T02:18:45.092Z,18.82
2023-04-01T02:21:13.763Z,18.99
2023-04-01T02:23:41.993Z,19.01
2023-04-01T02:26:13.162Z,19.11
2023-04-01T02:28:44.283Z,19.16
2023-04-01T02:31:13.880Z,19.20
2023-04-01T02:33:41.323Z,19.27
2023-04-01T02:36:19.610Z,19.05
2023-04-01T02:38:49.147Z,19.14
2023-04-01T02:41:16.360Z,19.08
2023-04-01T02:43:43.713Z,18.94
2023-04-01T02:46:11.083Z,18.84
2023-04-01T02:48:39.208Z,18.95
2023-04-01T02:51:10.036Z,19.04
2023-04-01T02:53:40.599Z,19.17
2023-04-01T02:56:08.240Z,19.08
2023-04-01T02:58:38.124Z,19.03
2023-04-01T03:01:11.490Z,18.48
2023-04-01T03:03:40.353Z,18.71
2023-04-01T03:06:13.847Z,18.56
2023-04-01T03:08:46.209Z,18.86
2023-04-01T03:11:16.709Z,18.78
2023-04-01T03:13:47.189Z,18.86
2023-04-01T03:16:22.490Z,18.93
2023-04-01T03:18:55.419Z,19.06
2023-04-01T03:21:25.544Z,19.08
2023-04-01T03:23:58.704Z,18.59
2023-04-01T03:26:28.044Z,18.74
2023-04-01T03:29:00.212Z,18.92
2023-04-01T03:31:30.200Z,19.02
2023-04-01T03:34:00.607Z,18.73
2023-04-01T03:36:30.729Z,18.81
2023-04-01T03:39:05.516Z,18.79
2023-04-01T03:41:45.527Z,18.87
2023-04-01T03:44:18.912Z,18.96
2023-04-01T03:46:52.249Z,19.10
2023-04-01T03:49:27.906Z,19.05
2023-04-01T03:51:57.555Z,19.15
2023-04-01T03:54:33.369Z,19.21
2023-04-01T03:57:07.058Z,19.24
2023-04-01T04:02:47.670Z,19.24
2023-04-01T04:05:20.869Z,18.88
2023-04-01T04:07:48.332Z,19.03
2023-04-01T04:10:18.641Z,18.88
2023-04-01T04:12:46.072Z,18.79
2023-04-01T04:15:13.546Z,18.62
2023-04-01T04:17:41.112Z,18.84
2023-04-01T04:20:14.838Z,19.00
2023-04-01T04:22:42.402Z,19.00
2023-04-01T04:25:10.387Z,19.08
2023-04-01T04:27:41.426Z,19.15
2023-04-01T04:30:12.196Z,19.31
2023-04-01T04:32:43.262Z,19.34
2023-04-01T04:35:12.361Z,19.41
2023-04-01T04:37:43.962Z,19.45
2023-04-01T04:40:12.296Z,19.46
2023-04-01T04:42:40.311Z,19.48
2023-04-01T04:45:13.875Z,19.39
2023-04-01T04:47:49.945Z,19.17
2023-04-01T04:50:20.941Z,19.06
2023-04-01T04:52:50.060Z,19.04
2023-04-01T04:55:24.217Z,18.84
2023-04-01T04:58:08.708Z,18.48
2023-04-01T05:00:36.737Z,18.56
2023-04-01T05:03:08.798Z,18.77
2023-04-01T05:05:36.201Z,18.68
2023-04-01T05:08:05.353Z,18.68
2023-04-01T05:10:33.235Z,18.90
2023-04-01T05:13:06.424Z,19.01
2023-04-01T05:15:36.300Z,18.68
2023-04-01T05:18:03.766Z,18.95
2023-04-01T05:20:31.254Z,18.91
2023-04-01T05:23:02.605Z,19.05
2023-04-01T05:25:30.273Z,19.08
2023-04-01T05:27:57.790Z,19.22
2023-04-01T05:30:27.600Z,19.21
2023-04-01T05:33:01.678Z,19.12
2023-04-01T05:35:29.191Z,19.22
2023-04-01T05:37:59.359Z,19.22
2023-04-01T05:40:27.058Z,18.90
2023-04-01T05:42:58.163Z,18.85
2023-04-01T05:45:25.542Z,19.06
2023-04-01T05:48:01.332Z,19.17
2023-04-01T05:50:35.016Z,19.25
2023-04-01T05:53:03.294Z,19.36
2023-04-01T05:55:30.801Z,19.34
2023-04-01T05:58:01.001Z,19.19
2023-04-01T06:00:30.414Z,19.08
2023-04-01T06:03:01.323Z,18.96
2023-04-01T06:05:31.735Z,18.91
2023-04-01T06:08:07.069Z,18.77
2023-04-01T06:10:52.668Z,18.91
2023-04-01T06:13:45.003Z,18.89
2023-04-01T06:16:46.004Z,18.75
2023-04-01T06:19:58.768Z,18.54
2023-04-01T06:23:00.235Z,18.81
2023-04-01T06:25:43.008Z,18.74
2023-04-01T06:28:17.339Z,18.71
2023-04-01T06:30:49.692Z,18.70
2023-04-01T06:33:50.556Z,18.70
2023-04-01T06:36:45.031Z,18.59
2023-04-01T06:39:30.832Z,18.56
2023-04-01T06:42:02.894Z,18.83
2023-04-01T06:44:56.789Z,18.91
2023-04-01T06:47:58.899Z,18.55
2023-04-01T06:51:17.080Z,18.42
2023-04-01T06:54:20.928Z,18.49
2023-04-01T06:57:30.067Z,18.54
2023-04-01T07:00:05.078Z,18.67
2023-04-01T07:02:32.323Z,18.69
2023-04-01T07:05:07.032Z,18.85
2023-04-01T07:08:01.428Z,18.68
2023-04-01T07:10:48.499Z,18.70
2023-04-01T07:13:53.687Z,18.52
2023-04-01T07:16:48.444Z,18.64
2023-04-01T07:19:43.671Z,18.71
2023-04-01T07:22:32.761Z,18.24
2023-04-01T07:25:37.468Z,18.51
2023-04-01T07:28:38.951Z,18.49
2023-04-01T07:31:49.967Z,18.43
2023-04-01T07:34:42.081Z,18.53
2023-04-01T07:37:15.754Z,18.64
2023-04-01T07:39:58.509Z,18.76
2023-04-01T07:42:56.095Z,18.67
2023-04-01T07:45:32.697Z,18.53
2023-04-01T07:48:25.131Z,18.63
2023-04-01T07:51:15.369Z,18.57
2023-04-01T07:54:04.768Z,18.38
2023-04-01T07:56:32.168Z,18.66
2023-04-01T07:59:01.562Z,18.69
2023-04-01T08:02:15.974Z,18.67
2023-04-01T08:04:53.264Z,18.63
2023-04-01T08:07:47.037Z,18.59
2023-04-01T08:10:49.447Z,18.41
2023-04-01T08:13:55.254Z,18.63
2023-04-01T08:17:30.880Z,18.57
2023-04-01T08:20:23.021Z,18.65
2023-04-01T08:23:02.168Z,18.57
2023-04-01T08:25:42.223Z,18.56
2023-04-01T08:28:34.505Z,18.63
2023-04-01T08:31:55.505Z,18.54
2023-04-01T08:34:27.512Z,18.72
2023-04-01T08:37:09.635Z,18.56
2023-04-01T08:39:43.499Z,18.68
2023-04-01T08:42:41.444Z,18.61
2023-04-01T08:45:36.830Z,18.40
2023-04-01T08:48:42.839Z,18.52
2023-04-01T08:51:38.632Z,18.63
2023-04-01T08:54:42.766Z,18.62
2023-04-01T08:57:32.755Z,18.78
2023-04-01T09:00:35.095Z,18.91
2023-04-01T09:03:42.755Z,19.04
2023-04-01T09:06:28.673Z,19.16
2023-04-01T09:09:21.655Z,19.20
2023-04-01T09:12:04.610Z,19.38
2023-04-01T09:15:01.458Z,19.39
2023-04-01T09:17:42.954Z,19.26
2023-04-01T09:20:31.364Z,19.34
2023-04-01T09:23:40.371Z,19.48
2023-04-01T09:26:51.095Z,19.54
2023-04-01T09:29:29.594Z,19.61
2023-04-01T09:32:32.826Z,19.69
2023-04-01T09:35:28.948Z,19.65
2023-04-01T09:38:21.564Z,19.47
2023-04-01T09:41:12.118Z,19.52
2023-04-01T09:44:41.842Z,19.77
2023-04-01T09:47:33.836Z,19.73
2023-04-01T09:50:23.697Z,19.60
2023-04-01T09:52:53.718Z,20.09
2023-04-01T09:55:47.171Z,19.87
2023-04-01T09:58:44.508Z,19.97
2023-04-01T10:01:57.339Z,20.34
2023-04-01T10:04:37.312Z,20.69
2023-04-01T10:07:38.452Z,20.94
2023-04-01T10:10:33.387Z,21.12
2023-04-01T10:13:43.572Z,21.59
2023-04-01T10:16:41.739Z,22.14
2023-04-01T10:19:33.509Z,22.48
2023-04-01T10:22:42.114Z,22.93
2023-04-01T10:25:57.290Z,23.42
2023-04-01T10:28:31.347Z,23.62
2023-04-01T10:31:25.008Z,23.73
2023-04-01T10:34:07.325Z,24.07
2023-04-01T10:36:58.218Z,24.12
2023-04-01T10:39:50.946Z,24.63
2023-04-01T10:43:13.412Z,25.04
2023-04-01T10:45:51.832Z,24.91
2023-04-01T10:48:40.071Z,25.30
2023-04-01T10:52:02.921Z,25.40
2023-04-01T10:55:20.856Z,25.44
2023-04-01T10:58:38.882Z,25.85
2023-04-01T11:01:44.285Z,26.57
2023-04-01T11:04:42.097Z,26.64
2023-04-01T11:08:02.794Z,26.74
2023-04-01T11:11:20.120Z,26.85
2023-04-01T11:14:09.849Z,27.29
2023-04-01T11:17:09.646Z,27.35
2023-04-01T11:19:38.525Z,27.63
2023-04-01T11:22:15.076Z,27.15
2023-04-01T11:28:25.525Z,27.14
2023-04-01T11:31:17.336Z,27.26
2023-04-01T11:34:15.808Z,28.01
2023-04-01T11:37:25.145Z,26.09
2023-04-01T11:40:51.177Z,26.41
2023-04-01T11:44:15.959Z,26.34
2023-04-01T11:47:19.997Z,26.19
2023-04-01T11:50:15.474Z,25.30
2023-04-01T11:53:03.870Z,25.55
2023-04-01T11:55:57.732Z,25.84
2023-04-01T11:58:45.047Z,26.18
2023-04-01T12:01:17.377Z,26.78
2023-04-01T12:04:03.441Z,26.18
2023-04-01T12:07:09.120Z,24.97
2023-04-01T12:09:51.343Z,26.01
2023-04-01T12:12:54.106Z,25.95
2023-04-01T12:15:46.330Z,25.51
2023-04-01T12:21:38.733Z,24.43
2023-04-01T12:24:22.364Z,24.18
2023-04-01T12:27:11.379Z,24.28
2023-04-01T12:30:26.194Z,24.46
2023-04-01T12:33:32.362Z,24.71
2023-04-01T12:36:20.105Z,24.76
2023-04-01T12:39:27.365Z,24.67
2023-04-01T12:42:45.968Z,24.02
2023-04-01T12:45:25.172Z,24.01
2023-04-01T12:48:42.013Z,24.18
2023-04-01T12:51:49.459Z,24.17
2023-04-01T12:54:49.106Z,24.07
2023-04-01T12:57:29.859Z,23.77
2023-04-01T13:00:22.637Z,23.73
2023-04-01T13:03:47.636Z,23.96
2023-04-01T13:06:20.428Z,24.18
2023-04-01T13:08:54.018Z,24.71
2023-04-01T13:11:56.349Z,24.96
2023-04-01T13:15:00.970Z,25.42
2023-04-01T13:17:41.739Z,25.52
2023-04-01T13:20:40.480Z,25.70
2023-04-01T13:23:25.995Z,25.67
2023-04-01T13:26:18.665Z,25.34
2023-04-01T13:28:55.001Z,26.01
2023-04-01T13:31:54.779Z,25.30
2023-04-01T13:34:42.890Z,26.14
2023-04-01T13:37:59.669Z,26.40
2023-04-01T13:41:03.571Z,26.34
2023-04-01T13:43:56.645Z,25.84
2023-04-01T13:46:51.537Z,25.80
2023-04-01T13:49:38.274Z,25.92
2023-04-01T13:52:48.294Z,25.67
2023-04-01T13:55:45.507Z,25.77
2023-04-01T13:58:37.262Z,25.77
2023-04-01T14:01:21.342Z,25.77
2023-04-01T14:03:54.133Z,25.74
2023-04-01T14:06:58.719Z,25.61
2023-04-01T14:09:46.042Z,26.19
2023-04-01T14:12:40.396Z,26.93
2023-04-01T14:15:22.612Z,26.40
2023-04-01T14:18:28.129Z,27.31
2023-04-01T14:21:25.179Z,27.63
2023-04-01T14:24:04.882Z,27.45
2023-04-01T14:27:06.505Z,27.05
2023-04-01T14:30:03.587Z,27.27
2023-04-01T14:33:24.078Z,27.19
2023-04-01T14:36:16.973Z,27.01
2023-04-01T14:39:04.562Z,26.81
2023-04-01T14:41:44.468Z,26.57
2023-04-01T14:44:49.513Z,26.55
2023-04-01T14:47:49.839Z,26.49
2023-04-01T14:50:27.853Z,26.90
2023-04-01T14:53:16.863Z,26.95
2023-04-01T14:55:52.513Z,26.74
2023-04-01T14:58:30.106Z,26.64
2023-04-01T15:01:16.001Z,26.21
2023-04-01T15:04:17.661Z,25.97
2023-04-01T15:07:22.568Z,25.78
2023-04-01T15:10:01.302Z,25.51
2023-04-01T15:12:46.582Z,25.36
2023-04-01T15:15:49.977Z,25.54
2023-04-01T15:18:51.272Z,24.99
2023-04-01T15:22:10.202Z,25.13
2023-04-01T15:25:15.230Z,24.59
2023-04-01T15:28:00.765Z,24.74
2023-04-01T15:30:57.733Z,24.76
2023-04-01T15:33:49.069Z,25.07
2023-04-01T15:36:25.441Z,25.03
2023-04-01T15:39:16.688Z,24.99
2023-04-01T15:42:20.262Z,25.23
2023-04-01T15:44:58.902Z,24.68
2023-04-01T15:47:37.926Z,24.97
2023-04-01T15:50:33.147Z,25.16
2023-04-01T15:53:41.244Z,24.87
2023-04-01T15:56:09.671Z,25.08
2023-04-01T15:58:51.295Z,24.53
2023-04-01T16:01:27.820Z,24.84
2023-04-01T16:04:17.123Z,24.86
2023-04-01T16:06:47.706Z,24.86
2023-04-01T16:09:33.708Z,24.71
2023-04-01T16:12:04.169Z,24.82
2023-04-01T16:14:49.277Z,24.46
2023-04-01T16:17:57.511Z,24.30
2023-04-01T16:20:47.538Z,24.18
2023-04-01T16:23:29.732Z,24.10
2023-04-01T16:26:11.420Z,24.04
2023-04-01T16:28:58.331Z,24.09
2023-04-01T16:31:36.182Z,23.76
2023-04-01T16:34:17.566Z,23.35
2023-04-01T16:36:49.893Z,23.38
2023-04-01T16:39:48.785Z,23.52
2023-04-01T16:42:32.389Z,23.16
2023-04-01T16:45:21.865Z,23.81
2023-04-01T16:47:51.741Z,23.65
2023-04-01T16:50:28.983Z,24.04
2023-04-01T16:53:19.971Z,24.17
2023-04-01T16:56:06.576Z,24.38
2023-04-01T16:58:43.323Z,24.55
2023-04-01T17:01:26.477Z,23.94
2023-04-01T17:04:37.958Z,23.89
2023-04-01T17:07:30.264Z,24.15
2023-04-01T17:10:16.765Z,24.09
2023-04-01T17:13:01.869Z,24.09
2023-04-01T17:15:50.050Z,24.44
2023-04-01T17:19:02.220Z,24.44
2023-04-01T17:21:45.249Z,24.22
2023-04-01T17:24:12.584Z,24.43
2023-04-01T17:27:08.452Z,24.41
2023-04-01T17:29:45.213Z,24.45
2023-04-01T17:32:36.929Z,24.50
2023-04-01T17:35:33.670Z,24.42
2023-04-01T17:38:44.260Z,24.40
2023-04-01T17:41:32.350Z,24.12
2023-04-01T17:44:24.216Z,24.47
2023-04-01T17:47:20.726Z,24.57
2023-04-01T17:50:11.757Z,24.56
2023-04-01T17:53:11.284Z,24.70
2023-04-01T17:56:00.569Z,24.54
2023-04-01T17:58:55.059Z,24.52
2023-04-01T18:01:36.648Z,24.58
2023-04-01T18:04:35.914Z,24.30
2023-04-01T18:07:21.615Z,23.85
2023-04-01T18:10:19.030Z,24.02
2023-04-01T18:13:27.492Z,23.75
2023-04-01T18:16:09.803Z,23.29
2023-04-01T18:18:54.475Z,23.24
2023-04-01T18:21:37.490Z,22.92
2023-04-01T18:24:21.549Z,22.50
2023-04-01T18:27:02.585Z,22.45
2023-04-01T18:30:08.974Z,22.28
2023-04-01T18:32:51.509Z,22.07
2023-04-01T18:35:43.675Z,22.03
2023-04-01T18:38:25.611Z,22.03
2023-04-01T18:41:09.820Z,21.96
2023-04-01T18:44:14.198Z,21.80
2023-04-01T18:46:54.908Z,21.32
2023-04-01T18:49:33.347Z,21.40
2023-04-01T18:52:28.807Z,21.14
2023-04-01T18:55:02.307Z,21.21
2023-04-01T18:57:48.483Z,20.89
2023-04-01T19:00:25.073Z,20.92
2023-04-01T19:03:12.403Z,20.80
2023-04-01T19:05:43.743Z,20.51
2023-04-01T19:08:32.438Z,20.35
2023-04-01T19:11:22.285Z,20.21
2023-04-01T19:14:09.629Z,20.23
2023-04-01T19:17:04.259Z,19.85
2023-04-01T19:20:17.784Z,19.94
2023-04-01T19:23:36.275Z,19.44
2023-04-01T19:26:15.389Z,19.77
2023-04-01T19:28:56.381Z,19.72
2023-04-01T19:31:32.381Z,19.60
2023-04-01T19:34:53.464Z,19.36
2023-04-01T19:37:56.448Z,19.47
2023-04-01T19:40:58.911Z,19.62
2023-04-01T19:43:40.952Z,19.63
2023-04-01T19:46:33.155Z,19.63
2023-04-01T19:49:16.210Z,19.62
2023-04-01T19:51:49.789Z,19.29
2023-04-01T19:54:32.003Z,19.61
2023-04-01T19:57:17.903Z,19.47
2023-04-01T19:59:59.265Z,19.64
2023-04-01T20:02:52.325Z,19.51
2023-04-01T20:05:46.952Z,19.56
2023-04-01T20:08:42.668Z,19.44
2023-04-01T20:11:22.271Z,19.46
2023-04-01T20:14:00.272Z,19.34
2023-04-01T20:17:04.609Z,19.20
2023-04-01T20:19:40.468Z,19.36
2023-04-01T20:22:26.793Z,19.42
2023-04-01T20:24:58.557Z,19.48
2023-04-01T20:27:33.490Z,19.37
2023-04-01T20:30:19.204Z,19.43
2023-04-01T20:33:37.568Z,19.31
2023-04-01T20:36:33.526Z,19.35
2023-04-01T20:39:25.980Z,19.40
2023-04-01T20:41:53.177Z,19.29
2023-04-01T20:44:44.500Z,19.37
2023-04-01T20:47:32.240Z,19.40
2023-04-01T20:50:31.942Z,19.28
2023-04-01T20:53:22.910Z,19.32
2023-04-01T20:56:03.146Z,19.01
2023-04-01T20:58:42.889Z,18.72
2023-04-01T21:01:36.772Z,18.42
2023-04-01T21:04:16.476Z,18.13
2023-04-01T21:07:11.259Z,18.17
2023-04-01T21:09:50.342Z,18.27
2023-04-01T21:12:17.394Z,18.22
2023-04-01T21:15:43.074Z,17.86
2023-04-01T21:18:45.629Z,18.20
2023-04-01T21:21:26.763Z,18.39
2023-04-01T21:23:57.032Z,18.41
2023-04-01T21:26:41.981Z,18.42
2023-04-01T21:29:49.928Z,18.17
2023-04-01T21:32:50.859Z,17.79
2023-04-01T21:35:41.442Z,17.98
2023-04-01T21:38:17.838Z,18.16
2023-04-01T21:41:16.560Z,18.13
2023-04-01T21:43:53.071Z,18.07
2023-04-01T21:46:48.440Z,18.24
2023-04-01T21:49:33.858Z,18.38
2023-04-01T21:52:26.485Z,18.39
2023-04-01T21:55:31.963Z,18.29
2023-04-01T21:58:14.232Z,18.32
2023-04-01T22:01:19.319Z,18.21
2023-04-01T22:03:52.536Z,18.24
2023-04-01T22:06:27.149Z,18.31
2023-04-01T22:09:04.713Z,18.35
2023-04-01T22:12:04.100Z,18.32
2023-04-01T22:15:01.830Z,18.17
2023-04-01T22:18:17.401Z,18.29
2023-04-01T22:21:22.495Z,18.16
2023-04-01T22:24:21.745Z,18.22
2023-04-01T22:27:00.322Z,18.32
2023-04-01T22:29:52.619Z,18.09
2023-04-01T22:32:33.169Z,18.07
2023-04-01T22:35:25.335Z,18.04
2023-04-01T22:38:11.145Z,17.81
2023-04-01T22:41:07.686Z,17.53
2023-04-01T22:43:48.833Z,17.59
2023-04-01T22:47:06.520Z,17.47
2023-04-01T22:49:48.067Z,17.31
2023-04-01T22:52:36.655Z,17.41
2023-04-01T22:55:26.867Z,17.17
2023-04-01T22:58:00.182Z,16.94
2023-04-01T23:00:33.739Z,16.87
2023-04-01T23:03:17.835Z,16.50
2023-04-01T23:05:54.121Z,16.78
2023-04-01T23:08:52.298Z,16.83
2023-04-01T23:11:50.070Z,16.73
2023-04-01T23:14:31.541Z,16.89
2023-04-01T23:17:18.292Z,16.91
2023-04-01T23:20:14.193Z,17.17
2023-04-01T23:23:16.707Z,17.28
2023-04-01T23:26:04.183Z,17.34
2023-04-01T23:28:42.305Z,17.33
2023-04-01T23:31:33.047Z,17.22
2023-04-01T23:34:23.682Z,16.91
2023-04-01T23:36:56.873Z,16.63
2023-04-01T23:39:30.700Z,16.94
2023-04-01T23:42:08.264Z,16.91
2023-04-01T23:44:37.660Z,17.13
2023-04-01T23:47:07.546Z,16.92
2023-04-01T23:49:45.539Z,16.88
2023-04-01T23:52:24.639Z,17.04
2023-04-01T23:55:04.833Z,16.78
2023-04-01T23:57:37.145Z,17.03
